createdAt,value
2022-07-28T00:01:09.618Z,0.57
2022-07-28T00:03:36.614Z,0.60
2022-07-28T00:06:03.763Z,0.80
2022-07-28T00:08:30.844Z,0.73
2022-07-28T00:10:57.806Z,0.60
2022-07-28T00:13:24.855Z,1.17
2022-07-28T00:15:51.865Z,0.60
2022-07-28T00:18:18.991Z,0.50
2022-07-28T00:20:45.972Z,0.70
2022-07-28T00:23:12.989Z,0.60
2022-07-28T00:25:39.945Z,0.52
2022-07-28T00:28:07.197Z,0.68
2022-07-28T00:30:34.283Z,0.88
2022-07-28T00:33:01.459Z,0.60
2022-07-28T00:35:30.216Z,0.60
2022-07-28T00:37:59.508Z,0.63
2022-07-28T00:40:47.216Z,0.70
2022-07-28T00:43:15.155Z,0.75
2022-07-28T00:45:43.808Z,0.70
2022-07-28T00:48:10.783Z,0.50
2022-07-28T00:50:40.405Z,0.65
2022-07-28T00:53:08.736Z,0.60
2022-07-28T00:56:03.413Z,0.63
2022-07-28T00:58:28.009Z,0.60
2022-07-28T01:00:55.561Z,0.45
2022-07-28T01:03:23.760Z,0.65
2022-07-28T01:05:59.442Z,0.75
2022-07-28T01:09:19.851Z,0.88
2022-07-28T01:12:01.344Z,0.40
2022-07-28T01:14:47.594Z,0.68
2022-07-28T01:17:33.118Z,0.70
2022-07-28T01:20:13.735Z,0.60
2022-07-28T01:23:01.455Z,0.60
2022-07-28T01:26:14.507Z,0.65
2022-07-28T01:29:19.007Z,0.73
2022-07-28T01:32:05.241Z,0.73
2022-07-28T01:34:50.486Z,0.70
2022-07-28T01:37:30.873Z,1.10
2022-07-28T01:40:03.297Z,0.80
2022-07-28T01:42:38.625Z,0.70
2022-07-28T01:45:08.839Z,0.60
2022-07-28T01:47:37.044Z,0.70
2022-07-28T01:50:09.882Z,0.50
2022-07-28T01:52:38.985Z,0.77
2022-07-28T01:55:07.766Z,0.80
2022-07-28T01:57:37.316Z,0.77
2022-07-28T02:00:09.905Z,0.55
2022-07-28T02:02:43.136Z,0.80
2022-07-28T02:05:14.758Z,0.60
2022-07-28T02:07:44.415Z,0.50
2022-07-28T02:10:16.817Z,0.70
2022-07-28T02:12:49.945Z,0.60
2022-07-28T02:15:17.735Z,0.60
2022-07-28T02:17:48.264Z,0.82
2022-07-28T02:20:16.383Z,0.70
2022-07-28T02:22:45.334Z,0.70
2022-07-28T02:25:20.653Z,0.52
2022-07-28T02:27:58.728Z,0.70
2022-07-28T02:30:41.335Z,0.50
2022-07-28T02:33:59.046Z,0.88
2022-07-28T02:36:25.543Z,1.15
2022-07-28T02:38:56.461Z,0.70
2022-07-28T02:41:28.077Z,0.57
2022-07-28T02:44:01.776Z,0.77
2022-07-28T02:46:53.469Z,0.68
2022-07-28T02:49:30.296Z,0.73
2022-07-28T02:52:00.501Z,0.80
2022-07-28T02:54:30.816Z,0.82
2022-07-28T02:56:59.922Z,0.77
2022-07-28T02:59:29.067Z,0.70
2022-07-28T03:01:57.399Z,1.05
2022-07-28T03:04:43.519Z,0.77
2022-07-28T03:07:11.346Z,0.90
2022-07-28T03:09:45.654Z,0.70
2022-07-28T03:12:13.413Z,0.90
2022-07-28T03:14:41.809Z,0.88
2022-07-28T03:17:09.559Z,0.75
2022-07-28T03:19:37.058Z,0.90
2022-07-28T03:22:05.340Z,0.55
2022-07-28T03:24:38.690Z,0.52
2022-07-28T03:27:31.020Z,0.90
2022-07-28T03:30:07.348Z,0.75
2022-07-28T03:32:38.527Z,0.70
2022-07-28T03:35:06.683Z,0.57
2022-07-28T03:38:13.391Z,0.70
2022-07-28T03:40:42.270Z,0.63
2022-07-28T03:43:16.510Z,0.50
2022-07-28T03:45:46.957Z,0.88
2022-07-28T03:50:42.619Z,0.60
2022-07-28T03:53:25.196Z,0.88
2022-07-28T03:55:53.538Z,0.70
2022-07-28T03:58:26.201Z,0.60
2022-07-28T04:00:56.759Z,0.60
2022-07-28T04:03:36.708Z,0.82
2022-07-28T04:06:12.257Z,1.27
2022-07-28T04:08:39.334Z,0.80
2022-07-28T04:11:06.359Z,0.73
2022-07-28T04:13:34.631Z,0.60
2022-07-28T04:16:01.676Z,0.80
2022-07-28T04:18:28.741Z,0.65
2022-07-28T04:20:55.916Z,0.80
2022-07-28T04:23:24.027Z,1.10
2022-07-28T04:25:51.011Z,0.95
2022-07-28T04:28:17.960Z,0.50
2022-07-28T04:30:45.029Z,0.90
2022-07-28T04:33:13.168Z,0.77
2022-07-28T04:35:40.682Z,0.73
2022-07-28T04:38:08.247Z,1.00
2022-07-28T04:40:35.458Z,1.10
2022-07-28T04:43:03.877Z,1.02
2022-07-28T04:45:31.088Z,0.90
2022-07-28T04:47:58.145Z,0.88
2022-07-28T04:50:25.365Z,0.70
2022-07-28T04:52:59.038Z,0.90
2022-07-28T04:55:26.495Z,0.90
2022-07-28T04:57:53.449Z,0.70
2022-07-28T05:00:22.944Z,0.70
2022-07-28T05:02:50.449Z,0.52
2022-07-28T05:05:18.122Z,0.80
2022-07-28T05:07:45.266Z,0.63
2022-07-28T05:10:12.879Z,0.85
2022-07-28T05:12:39.956Z,0.93
2022-07-28T05:15:08.514Z,0.90
2022-07-28T05:17:37.064Z,1.25
2022-07-28T05:20:06.144Z,1.00
2022-07-28T05:22:48.106Z,1.08
2022-07-28T05:25:17.723Z,0.70
2022-07-28T05:27:46.326Z,0.52
2022-07-28T05:30:14.801Z,1.10
2022-07-28T05:32:41.940Z,1.00
2022-07-28T05:35:09.596Z,1.00
2022-07-28T05:37:37.649Z,0.85
2022-07-28T05:40:11.848Z,1.42
2022-07-28T05:42:39.960Z,0.70
2022-07-28T05:45:16.776Z,1.45
2022-07-28T05:47:53.272Z,0.80
2022-07-28T05:50:22.372Z,0.88
2022-07-28T05:52:51.108Z,0.90
2022-07-28T05:55:18.935Z,0.85
2022-07-28T05:57:46.804Z,1.10
2022-07-28T06:00:23.538Z,1.02
2022-07-28T06:02:50.901Z,1.00
2022-07-28T06:05:20.861Z,1.70
2022-07-28T06:07:49.631Z,1.23
2022-07-28T06:10:21.598Z,0.90
2022-07-28T06:12:51.539Z,1.15
2022-07-28T06:15:25.756Z,1.10
2022-07-28T06:17:55.400Z,0.90
2022-07-28T06:20:23.964Z,0.90
2022-07-28T06:22:54.810Z,0.88
2022-07-28T06:25:27.871Z,0.90
2022-07-28T06:28:00.688Z,1.10
2022-07-28T06:30:28.059Z,1.27
2022-07-28T06:32:55.738Z,1.00
2022-07-28T06:35:22.971Z,1.08
2022-07-28T06:37:52.028Z,1.10
2022-07-28T06:40:20.639Z,0.73
2022-07-28T06:42:48.041Z,1.05
2022-07-28T06:45:21.386Z,1.40
2022-07-28T06:47:52.686Z,1.13
2022-07-28T06:50:26.308Z,1.20
2022-07-28T06:52:58.879Z,1.20
2022-07-28T06:55:33.769Z,1.13
2022-07-28T06:58:05.620Z,1.10
2022-07-28T07:00:33.034Z,1.10
2022-07-28T07:03:00.946Z,1.27
2022-07-28T07:05:31.957Z,1.23
2022-07-28T07:07:59.413Z,1.02
2022-07-28T07:10:26.605Z,1.45
2022-07-28T07:12:53.705Z,1.00
2022-07-28T07:15:20.683Z,1.33
2022-07-28T07:17:47.681Z,1.15
2022-07-28T07:20:17.246Z,1.15
2022-07-28T07:22:47.331Z,1.13
2022-07-28T07:25:18.235Z,1.17
2022-07-28T07:27:46.221Z,1.27
2022-07-28T07:30:15.035Z,1.30
2022-07-28T07:32:43.177Z,1.40
2022-07-28T07:35:10.452Z,1.65
2022-07-28T07:37:37.621Z,1.25
2022-07-28T07:40:06.329Z,1.40
2022-07-28T07:42:33.692Z,1.40
2022-07-28T07:45:00.756Z,1.80
2022-07-28T07:47:27.968Z,1.60
2022-07-28T07:49:55.015Z,1.95
2022-07-28T07:52:22.007Z,1.67
2022-07-28T07:54:50.683Z,1.60
2022-07-28T07:57:17.962Z,1.40
2022-07-28T07:59:45.174Z,1.98
2022-07-28T08:02:12.241Z,1.95
2022-07-28T08:04:39.325Z,1.80
2022-07-28T08:07:07.373Z,1.85
2022-07-28T08:09:35.450Z,1.67
2022-07-28T08:12:03.148Z,1.92
2022-07-28T08:14:30.257Z,2.03
2022-07-28T08:16:59.097Z,2.00
2022-07-28T08:19:26.605Z,1.77
2022-07-28T08:21:55.289Z,1.83
2022-07-28T08:24:28.976Z,1.70
2022-07-28T08:27:03.034Z,1.98
2022-07-28T08:29:30.737Z,2.45
2022-07-28T08:31:57.910Z,2.20
2022-07-28T08:34:31.186Z,1.60
2022-07-28T08:37:02.198Z,1.95
2022-07-28T08:39:30.790Z,1.98
2022-07-28T08:42:15.299Z,2.17
2022-07-28T08:45:03.338Z,2.80
2022-07-28T08:47:46.076Z,2.40
2022-07-28T08:50:24.256Z,1.77
2022-07-28T08:52:53.253Z,2.33
2022-07-28T08:55:31.321Z,1.90
2022-07-28T08:58:00.421Z,1.83
2022-07-28T09:00:27.915Z,1.83
2022-07-28T09:02:55.577Z,2.03
2022-07-28T09:05:24.273Z,2.40
2022-07-28T09:07:55.196Z,1.95
2022-07-28T09:10:23.272Z,2.00
2022-07-28T09:12:50.931Z,1.92
2022-07-28T09:15:17.968Z,2.42
2022-07-28T09:17:45.741Z,2.28
2022-07-28T09:20:13.764Z,2.22
2022-07-28T09:23:02.649Z,2.15
2022-07-28T09:25:31.274Z,1.92
2022-07-28T09:28:14.990Z,2.70
2022-07-28T09:30:53.485Z,2.47
2022-07-28T09:33:41.145Z,2.30
2022-07-28T09:36:15.836Z,1.92
2022-07-28T09:38:43.274Z,2.15
2022-07-28T09:41:10.992Z,1.80
2022-07-28T09:43:39.843Z,1.77
2022-07-28T09:46:13.362Z,1.80
2022-07-28T09:48:52.650Z,1.98
2022-07-28T09:51:29.537Z,2.35
2022-07-28T09:54:17.614Z,1.90
2022-07-28T09:56:46.331Z,1.90
2022-07-28T09:59:14.829Z,1.70
2022-07-28T10:01:59.774Z,1.67
2022-07-28T10:04:42.254Z,1.90
2022-07-28T10:07:15.697Z,1.90
2022-07-28T10:09:43.478Z,2.50
2022-07-28T10:12:27.252Z,2.35
2022-07-28T10:14:57.041Z,1.88
2022-07-28T10:17:33.736Z,1.77
2022-07-28T10:20:06.465Z,1.48
2022-07-28T10:22:42.872Z,1.90
2022-07-28T10:25:12.697Z,1.65
2022-07-28T10:27:42.011Z,2.20
2022-07-28T10:30:10.233Z,1.90
2022-07-28T10:32:42.015Z,1.48
2022-07-28T10:35:15.569Z,2.00
2022-07-28T10:38:05.921Z,1.42
2022-07-28T10:40:40.389Z,1.40
2022-07-28T10:43:08.864Z,1.50
2022-07-28T10:46:03.947Z,1.33
2022-07-28T10:48:25.893Z,1.52
2022-07-28T10:50:54.817Z,1.70
2022-07-28T10:53:45.841Z,1.80
2022-07-28T10:56:42.924Z,1.58
2022-07-28T10:59:48.914Z,1.67
2022-07-28T11:02:51.586Z,1.80
2022-07-28T11:05:39.048Z,1.60
2022-07-28T11:08:16.993Z,1.77
2022-07-28T11:10:55.201Z,1.95
2022-07-28T11:13:32.839Z,1.63
2022-07-28T11:16:15.730Z,1.85
2022-07-28T11:19:07.758Z,1.75
2022-07-28T11:22:16.167Z,2.00
2022-07-28T11:25:18.928Z,1.88
2022-07-28T11:27:50.206Z,1.88
2022-07-28T11:30:27.489Z,1.95
2022-07-28T11:32:54.437Z,1.63
2022-07-28T11:35:26.783Z,2.15
2022-07-28T11:38:02.897Z,1.70
2022-07-28T11:40:54.156Z,2.03
2022-07-28T11:43:27.934Z,1.60
2022-07-28T11:46:11.096Z,2.05
2022-07-28T11:48:42.094Z,1.90
2022-07-28T11:51:12.305Z,1.45
2022-07-28T11:53:52.737Z,2.10
2022-07-28T11:56:29.268Z,1.75
2022-07-28T11:59:07.246Z,1.85
2022-07-28T12:01:38.405Z,1.80
2022-07-28T12:04:15.794Z,1.77
2022-07-28T12:06:44.406Z,1.80
2022-07-28T12:09:23.251Z,1.52
2022-07-28T12:11:54.210Z,1.50
2022-07-28T12:14:22.651Z,2.00
2022-07-28T12:16:53.436Z,1.88
2022-07-28T12:19:20.790Z,2.00
2022-07-28T12:21:52.146Z,1.95
2022-07-28T12:24:45.423Z,2.28
2022-07-28T12:27:14.984Z,1.80
2022-07-28T12:29:42.593Z,1.60
2022-07-28T12:32:10.099Z,1.77
2022-07-28T12:34:40.300Z,2.15
2022-07-28T12:37:12.177Z,1.80
2022-07-28T12:39:41.924Z,1.85
2022-07-28T12:42:13.204Z,1.30
2022-07-28T12:44:48.054Z,2.00
2022-07-28T12:47:28.365Z,1.27
2022-07-28T12:50:17.871Z,1.58
2022-07-28T12:53:03.845Z,1.70
2022-07-28T12:55:32.213Z,1.75
2022-07-28T12:58:00.347Z,2.05
2022-07-28T13:00:31.656Z,1.60
2022-07-28T13:03:00.951Z,1.92
2022-07-28T13:05:57.409Z,2.05
2022-07-28T13:08:29.458Z,1.42
2022-07-28T13:10:58.955Z,2.10
2022-07-28T13:13:27.280Z,2.03
2022-07-28T13:16:18.639Z,1.65
2022-07-28T13:18:58.232Z,1.60
2022-07-28T13:21:57.335Z,1.98
2022-07-28T13:24:28.764Z,2.08
2022-07-28T13:26:57.153Z,2.40
2022-07-28T13:29:24.454Z,1.70
2022-07-28T13:31:54.613Z,1.73
2022-07-28T13:34:22.450Z,2.33
2022-07-28T13:36:49.551Z,1.52
2022-07-28T13:39:16.580Z,1.83
2022-07-28T13:41:57.230Z,2.10
2022-07-28T13:44:30.290Z,1.65
2022-07-28T13:46:59.619Z,2.00
2022-07-28T13:49:28.426Z,1.55
2022-07-28T13:51:55.784Z,1.73
2022-07-28T13:54:23.154Z,1.45
2022-07-28T13:56:51.115Z,2.03
2022-07-28T13:59:18.083Z,1.52
2022-07-28T14:01:49.968Z,1.67
2022-07-28T14:04:21.315Z,1.70
2022-07-28T14:06:49.139Z,1.55
2022-07-28T14:09:18.151Z,2.22
2022-07-28T14:14:24.787Z,1.50
2022-07-28T14:16:54.651Z,1.73
2022-07-28T14:22:13.790Z,1.75
2022-07-28T14:24:44.250Z,1.70
2022-07-28T14:27:11.483Z,1.83
2022-07-28T14:29:39.919Z,1.70
2022-07-28T14:32:07.153Z,1.55
2022-07-28T14:34:34.844Z,2.05
2022-07-28T14:37:03.513Z,2.20
2022-07-28T14:39:34.208Z,1.73
2022-07-28T14:42:01.188Z,1.80
2022-07-28T14:44:28.408Z,1.77
2022-07-28T14:46:55.642Z,1.80
2022-07-28T14:49:22.749Z,1.90
2022-07-28T14:51:51.006Z,1.30
2022-07-28T14:54:18.627Z,1.48
2022-07-28T14:56:45.923Z,1.50
2022-07-28T14:59:12.897Z,2.00
2022-07-28T15:01:40.419Z,1.80
2022-07-28T15:04:07.582Z,1.83
2022-07-28T15:06:34.558Z,2.13
2022-07-28T15:09:02.308Z,1.60
2022-07-28T15:11:29.301Z,1.77
2022-07-28T15:13:56.277Z,1.98
2022-07-28T15:16:23.438Z,2.30
2022-07-28T15:18:53.211Z,2.10
2022-07-28T15:21:20.368Z,1.80
2022-07-28T15:23:48.380Z,1.30
2022-07-28T15:26:15.332Z,1.70
2022-07-28T15:28:42.430Z,1.77
2022-07-28T15:31:09.474Z,1.65
2022-07-28T15:33:45.329Z,1.50
2022-07-28T15:36:15.366Z,1.60
2022-07-28T15:38:43.007Z,2.08
2022-07-28T15:41:16.190Z,1.85
2022-07-28T15:43:43.741Z,1.67
2022-07-28T15:46:13.238Z,1.90
2022-07-28T15:48:43.587Z,1.73
2022-07-28T15:51:11.007Z,1.92
2022-07-28T15:53:38.636Z,1.83
2022-07-28T15:56:06.062Z,1.85
2022-07-28T15:58:33.659Z,1.98
2022-07-28T16:01:01.676Z,2.05
2022-07-28T16:03:30.396Z,1.70
2022-07-28T16:05:58.594Z,1.80
2022-07-28T16:08:25.917Z,2.15
2022-07-28T16:10:53.200Z,1.77
2022-07-28T16:13:36.451Z,1.50
2022-07-28T16:16:10.924Z,1.70
2022-07-28T16:18:42.058Z,1.67
2022-07-28T16:21:10.696Z,1.70
2022-07-28T16:23:38.011Z,1.65
2022-07-28T16:26:07.925Z,1.52
2022-07-28T16:28:36.369Z,1.35
2022-07-28T16:31:03.753Z,1.83
2022-07-28T16:33:33.156Z,1.70
2022-07-28T16:36:02.213Z,1.70
2022-07-28T16:38:30.073Z,1.88
2022-07-28T16:40:57.229Z,1.80
2022-07-28T16:43:24.521Z,1.45
2022-07-28T16:45:51.621Z,1.73
2022-07-28T16:48:18.572Z,1.67
2022-07-28T16:50:46.154Z,1.50
2022-07-28T16:53:13.883Z,1.75
2022-07-28T16:55:42.199Z,2.70
2022-07-28T16:58:09.327Z,1.60
2022-07-28T17:00:36.372Z,1.88
2022-07-28T17:03:03.391Z,1.88
2022-07-28T17:05:30.353Z,1.83
2022-07-28T17:07:58.248Z,1.70
2022-07-28T17:10:27.226Z,1.70
2022-07-28T17:12:54.897Z,1.60
2022-07-28T17:15:23.106Z,1.80
2022-07-28T17:17:51.882Z,2.00
2022-07-28T17:20:21.525Z,2.03
2022-07-28T17:22:48.902Z,1.80
2022-07-28T17:28:05.008Z,1.85
2022-07-28T17:30:33.658Z,1.83
2022-07-28T17:33:06.280Z,1.75
2022-07-28T17:35:37.334Z,1.50
2022-07-28T17:38:06.871Z,1.58
2022-07-28T17:40:33.945Z,1.55
2022-07-28T17:43:00.970Z,1.85
2022-07-28T17:45:27.947Z,1.50
2022-07-28T17:47:54.920Z,1.75
2022-07-28T17:50:21.893Z,1.65
2022-07-28T17:52:48.928Z,1.52
2022-07-28T17:55:40.664Z,1.52
2022-07-28T17:58:28.739Z,1.65
2022-07-28T18:01:11.168Z,1.67
2022-07-28T18:03:57.934Z,2.10
2022-07-28T18:06:29.847Z,1.45
2022-07-28T18:09:02.807Z,1.70
2022-07-28T18:11:35.219Z,1.58
2022-07-28T18:14:17.892Z,1.95
2022-07-28T18:16:45.135Z,1.40
2022-07-28T18:19:12.148Z,1.40
2022-07-28T18:21:39.321Z,1.98
2022-07-28T18:24:10.244Z,1.88
2022-07-28T18:26:37.217Z,1.70
2022-07-28T18:29:04.187Z,1.60
2022-07-28T18:31:31.905Z,1.40
2022-07-28T18:33:59.077Z,1.40
2022-07-28T18:36:26.102Z,1.52
2022-07-28T18:38:53.068Z,1.40
2022-07-28T18:41:20.152Z,1.60
2022-07-28T18:43:47.176Z,1.75
2022-07-28T18:46:14.323Z,1.30
2022-07-28T18:48:41.347Z,1.30
2022-07-28T18:51:08.355Z,1.40
2022-07-28T18:53:36.442Z,1.48
2022-07-28T18:56:03.731Z,1.50
2022-07-28T18:58:30.728Z,1.17
2022-07-28T19:00:57.690Z,1.58
2022-07-28T19:03:24.648Z,1.55
2022-07-28T19:05:53.655Z,1.38
2022-07-28T19:08:20.992Z,1.20
2022-07-28T19:10:48.045Z,1.42
2022-07-28T19:13:15.620Z,1.23
2022-07-28T19:15:42.669Z,1.63
2022-07-28T19:18:11.962Z,1.30
2022-07-28T19:20:45.216Z,1.65
2022-07-28T19:23:12.166Z,1.30
2022-07-28T19:25:39.739Z,1.42
2022-07-28T19:28:07.228Z,1.30
2022-07-28T19:30:35.247Z,1.30
2022-07-28T19:33:03.413Z,1.13
2022-07-28T19:35:30.667Z,1.30
2022-07-28T19:38:00.127Z,1.40
2022-07-28T19:40:31.557Z,1.27
2022-07-28T19:42:59.854Z,1.35
2022-07-28T19:45:27.345Z,1.10
2022-07-28T19:47:54.726Z,1.10
2022-07-28T19:50:22.725Z,1.50
2022-07-28T19:52:50.109Z,1.40
2022-07-28T19:55:17.873Z,1.20
2022-07-28T19:57:45.784Z,1.50
2022-07-28T20:00:13.684Z,1.15
2022-07-28T20:02:41.012Z,1.17
2022-07-28T20:05:09.261Z,1.27
2022-07-28T20:07:36.426Z,0.98
2022-07-28T20:10:05.075Z,1.17
2022-07-28T20:12:36.415Z,1.13
2022-07-28T20:15:05.869Z,1.20
2022-07-28T20:17:39.046Z,1.20
2022-07-28T20:20:12.714Z,1.00
2022-07-28T20:22:41.716Z,1.17
2022-07-28T20:25:10.654Z,1.10
2022-07-28T20:27:42.062Z,1.42
2022-07-28T20:30:11.640Z,1.13
2022-07-28T20:32:40.540Z,1.13
2022-07-28T20:35:10.848Z,1.10
2022-07-28T20:37:38.888Z,1.15
2022-07-28T20:40:07.658Z,1.50
2022-07-28T20:42:36.627Z,1.30
2022-07-28T20:45:04.739Z,1.08
2022-07-28T20:47:33.344Z,1.00
2022-07-28T20:50:01.276Z,1.02
2022-07-28T20:52:28.360Z,1.10
2022-07-28T20:54:55.385Z,1.30
2022-07-28T20:57:23.327Z,1.15
2022-07-28T20:59:52.038Z,1.02
2022-07-28T21:02:23.147Z,1.10
2022-07-28T21:04:51.362Z,1.40
2022-07-28T21:08:05.493Z,1.30
2022-07-28T21:10:08.916Z,1.27
2022-07-28T21:12:37.265Z,1.55
2022-07-28T21:15:09.339Z,1.38
2022-07-28T21:17:36.816Z,1.15
2022-07-28T21:20:05.940Z,1.30
2022-07-28T21:22:33.005Z,1.42
2022-07-28T21:24:59.981Z,1.75
2022-07-28T21:27:26.998Z,1.05
2022-07-28T21:32:19.889Z,1.40
2022-07-28T21:34:46.882Z,1.35
2022-07-28T21:37:14.110Z,1.45
2022-07-28T21:39:41.188Z,1.20
2022-07-28T21:42:09.317Z,1.35
2022-07-28T21:44:39.629Z,1.20
2022-07-28T21:47:06.977Z,1.40
2022-07-28T21:49:33.996Z,1.27
2022-07-28T21:52:01.006Z,1.15
2022-07-28T21:54:28.176Z,1.50
2022-07-28T21:56:55.260Z,1.63
2022-07-28T21:59:22.269Z,1.30
2022-07-28T22:01:49.458Z,1.20
2022-07-28T22:04:17.029Z,1.55
2022-07-28T22:06:46.418Z,1.20
2022-07-28T22:09:14.985Z,1.43
2022-07-28T22:11:42.184Z,1.42
2022-07-28T22:14:09.237Z,1.45
2022-07-28T22:16:36.799Z,1.40
2022-07-28T22:19:04.056Z,1.38
2022-07-28T22:21:31.064Z,1.65
2022-07-28T22:23:58.022Z,1.15
2022-07-28T22:26:25.110Z,1.65
2022-07-28T22:28:52.084Z,1.70
2022-07-28T22:31:19.102Z,1.42
2022-07-28T22:33:46.114Z,1.38
2022-07-28T22:36:13.177Z,1.33
2022-07-28T22:38:40.353Z,1.67
2022-07-28T22:41:07.432Z,1.55
2022-07-28T22:43:34.556Z,1.52
2022-07-28T22:46:01.798Z,1.40
2022-07-28T22:48:29.008Z,1.48
2022-07-28T22:50:56.086Z,1.58
2022-07-28T22:53:23.043Z,1.33
2022-07-28T22:55:50.032Z,1.67
2022-07-28T22:58:17.053Z,1.90
2022-07-28T23:00:44.146Z,1.60
2022-07-28T23:03:13.084Z,1.85
2022-07-28T23:05:40.768Z,1.73
2022-07-28T23:08:07.841Z,1.80
2022-07-28T23:10:37.850Z,1.58
2022-07-28T23:13:04.912Z,1.67
2022-07-28T23:15:39.720Z,1.60
2022-07-28T23:18:10.543Z,1.58
2022-07-28T23:20:39.295Z,1.80
2022-07-28T23:23:07.007Z,2.15
2022-07-28T23:25:37.381Z,1.92
2022-07-28T23:30:31.521Z,1.90
2022-07-28T23:32:58.540Z,2.10
2022-07-28T23:35:25.846Z,2.10
2022-07-28T23:37:52.820Z,2.40
2022-07-28T23:40:19.945Z,2.10
2022-07-28T23:42:46.902Z,2.00
2022-07-28T23:45:13.887Z,2.10
2022-07-28T23:47:40.943Z,2.05
2022-07-28T23:50:08.544Z,2.60
2022-07-28T23:52:35.516Z,2.28
2022-07-28T23:55:02.591Z,2.20
2022-07-28T23:57:30.749Z,2.22
2022-07-28T23:59:59.519Z,2.35
